Time;durP1;ratioP1;P1;durP2;ratioP2;P2;SDS_P1;SDS_P2;PMS_P1;PMS_P2;Temp;Humidity;BMP_temperature;BMP_pressure;BME280_temperature;BME280_humidity;BME280_pressure;Samples;Min_cycle;Max_cycle;Signal;HPM_P1;HPM_P2
2024/04/16 00:00:39;;;;;;;1.77;1.07;;;5.90;99.90;;;;;;6575028;21;20516;-87
2024/04/16 00:03:07;;;;;;;0.80;0.80;;;5.90;99.90;;;;;;6575775;21;20692;-88
2024/04/16 00:05:33;;;;;;;1.40;1.17;;;5.90;99.90;;;;;;6573635;21;20237;-88
2024/04/16 00:08:02;;;;;;;2.67;1.17;;;5.90;99.90;;;;;;6574908;21;20226;-88
2024/04/16 00:10:28;;;;;;;2.37;1.00;;;5.90;99.90;;;;;;6574715;21;20221;-88
2024/04/16 00:13:00;;;;;;;2.13;1.33;;;5.90;99.90;;;;;;6575659;21;20274;-87
2024/04/16 00:15:25;;;;;;;1.00;0.90;;;5.90;99.90;;;;;;6575398;21;20237;-88
2024/04/16 00:17:54;;;;;;;4.03;1.20;;;5.80;99.90;;;;;;6575845;21;20519;-88
2024/04/16 00:20:20;;;;;;;2.30;1.30;;;5.90;99.90;;;;;;6575531;21;20221;-88
2024/04/16 00:22:49;;;;;;;4.77;1.20;;;5.90;99.90;;;;;;6576538;21;20516;-89
2024/04/16 00:25:15;;;;;;;1.70;1.10;;;5.90;99.90;;;;;;6577716;21;20245;-87
2024/04/16 00:27:45;;;;;;;2.00;1.10;;;5.90;99.90;;;;;;6577431;21;21055;-89
2024/04/16 00:30:13;;;;;;;3.83;1.30;;;5.90;99.90;;;;;;6577100;21;20765;-87
2024/04/16 00:32:42;;;;;;;1.73;1.13;;;6.00;99.90;;;;;;6577832;21;20472;-87
2024/04/16 00:35:08;;;;;;;4.50;1.43;;;6.00;99.90;;;;;;6577193;21;20582;-88
2024/04/16 00:37:36;;;;;;;2.07;1.10;;;6.00;99.90;;;;;;6577211;21;20460;-89
2024/04/16 00:40:02;;;;;;;2.53;1.40;;;6.00;99.90;;;;;;6577335;21;20268;-87
2024/04/16 00:42:31;;;;;;;2.97;1.30;;;6.00;99.90;;;;;;6576702;21;20520;-89
2024/04/16 00:44:57;;;;;;;2.57;1.40;;;6.00;99.90;;;;;;6577626;21;20471;-89
2024/04/16 00:47:28;;;;;;;3.43;1.23;;;6.00;99.90;;;;;;6577042;21;20511;-88
2024/04/16 00:49:54;;;;;;;1.20;1.10;;;6.00;99.90;;;;;;6578505;21;20452;-88
2024/04/16 00:52:23;;;;;;;3.13;1.33;;;6.00;99.90;;;;;;6576778;21;21002;-87
2024/04/16 00:54:49;;;;;;;1.57;0.87;;;6.00;99.90;;;;;;6577940;21;20229;-87
2024/04/16 00:57:17;;;;;;;2.23;0.90;;;6.00;99.90;;;;;;6577313;21;20577;-87
2024/04/16 00:59:46;;;;;;;2.27;0.90;;;6.00;99.90;;;;;;6577840;21;20681;-88
2024/04/16 01:02:15;;;;;;;0.60;0.60;;;6.00;99.90;;;;;;6576625;21;20528;-89
2024/04/16 01:04:43;;;;;;;0.70;0.70;;;6.00;99.90;;;;;;6577407;21;21002;-87
2024/04/16 01:07:12;;;;;;;1.00;0.70;;;6.00;99.90;;;;;;6576643;21;20988;-88
2024/04/16 01:09:37;;;;;;;0.83;0.70;;;6.00;99.90;;;;;;6577457;21;20668;-87
2024/04/16 01:12:07;;;;;;;0.70;0.60;;;6.00;99.90;;;;;;6577540;21;20800;-87
2024/04/16 01:14:33;;;;;;;3.40;0.67;;;5.90;99.90;;;;;;6577114;21;20534;-88
2024/04/16 01:17:01;;;;;;;1.17;0.60;;;5.90;99.90;;;;;;6576917;21;20225;-88
2024/04/16 01:19:27;;;;;;;0.50;0.50;;;5.90;99.90;;;;;;6577241;21;20244;-87
2024/04/16 01:21:58;;;;;;;2.03;0.60;;;5.80;99.90;;;;;;6577014;21;20460;-88
2024/04/16 01:24:27;;;;;;;1.20;0.57;;;5.80;99.90;;;;;;6577694;21;20526;-88
2024/04/16 01:26:56;;;;;;;0.97;0.50;;;5.80;99.90;;;;;;6576814;21;20575;-89
2024/04/16 01:29:22;;;;;;;1.43;0.70;;;5.70;99.90;;;;;;6578453;21;20508;-90
2024/04/16 01:31:51;;;;;;;1.03;0.63;;;5.70;99.90;;;;;;6577478;21;20519;-90
2024/04/16 01:34:17;;;;;;;3.23;0.43;;;5.70;99.90;;;;;;6575964;21;20221;-89
2024/04/16 01:36:45;;;;;;;2.70;0.87;;;5.60;99.90;;;;;;6577177;21;20448;-89
2024/04/16 01:39:11;;;;;;;2.23;0.67;;;5.60;99.90;;;;;;6576943;21;20217;-88
2024/04/16 01:41:42;;;;;;;1.80;0.80;;;5.60;99.90;;;;;;6576557;21;20460;-88
2024/04/16 01:44:08;;;;;;;1.90;0.60;;;5.60;99.90;;;;;;6576745;21;20221;-90
2024/04/16 01:46:37;;;;;;;0.83;0.60;;;5.60;99.90;;;;;;6576560;21;20221;-88
2024/04/16 01:49:03;;;;;;;2.10;0.70;;;5.60;99.90;;;;;;6575062;21;20225;-88
2024/04/16 01:51:31;;;;;;;2.93;0.70;;;5.60;99.90;;;;;;6576589;21;20460;-88
2024/04/16 01:53:57;;;;;;;2.30;0.60;;;5.60;99.90;;;;;;6577035;21;20233;-89
2024/04/16 01:56:25;;;;;;;2.67;0.70;;;5.60;99.90;;;;;;6576724;21;20512;-87
2024/04/16 01:58:54;;;;;;;0.50;0.50;;;5.60;99.90;;;;;;6576964;21;20217;-88
2024/04/16 02:01:22;;;;;;;1.33;0.60;;;5.60;99.90;;;;;;6576402;21;20578;-88
2024/04/16 02:03:48;;;;;;;0.93;0.50;;;5.60;99.90;;;;;;6577084;21;20827;-89
2024/04/16 02:06:17;;;;;;;1.57;0.70;;;5.60;99.90;;;;;;6576661;21;20935;-89
2024/04/16 02:08:43;;;;;;;1.60;0.70;;;5.70;99.90;;;;;;6577258;21;20256;-89
2024/04/16 02:11:12;;;;;;;1.00;0.60;;;5.70;99.90;;;;;;6576730;21;20778;-88
2024/04/16 02:13:38;;;;;;;0.60;0.60;;;5.70;99.90;;;;;;6576188;21;20568;-89
2024/04/16 02:16:10;;;;;;;0.80;0.60;;;5.80;99.90;;;;;;6576430;21;20460;-88
2024/04/16 02:18:36;;;;;;;1.60;0.60;;;5.70;99.90;;;;;;6576177;21;20221;-87
2024/04/16 02:21:04;;;;;;;0.53;0.53;;;5.70;99.90;;;;;;6576023;21;20828;-89
2024/04/16 02:23:30;;;;;;;0.50;0.50;;;5.70;99.90;;;;;;6576700;21;20460;-88
2024/04/16 02:25:59;;;;;;;1.03;0.67;;;5.70;99.90;;;;;;6576169;21;20521;-89
2024/04/16 02:28:25;;;;;;;0.97;0.60;;;5.70;99.90;;;;;;6575043;21;20225;-87
2024/04/16 02:30:53;;;;;;;0.90;0.50;;;5.70;99.90;;;;;;6575262;21;20859;-88
2024/04/16 02:33:22;;;;;;;2.07;0.70;;;5.70;99.90;;;;;;6575892;21;20309;-88
2024/04/16 02:35:50;;;;;;;1.10;0.70;;;5.70;99.90;;;;;;6575939;21;20632;-87
2024/04/16 02:38:16;;;;;;;1.03;0.70;;;5.70;99.90;;;;;;6575854;21;20459;-87
2024/04/16 02:40:45;;;;;;;1.50;0.50;;;5.70;99.90;;;;;;6575781;21;20739;-87
2024/04/16 02:43:11;;;;;;;1.07;0.60;;;5.70;99.90;;;;;;6574264;21;20221;-88
2024/04/16 02:45:40;;;;;;;1.67;0.90;;;5.60;99.90;;;;;;6574783;21;20531;-87
2024/04/16 02:48:06;;;;;;;1.30;0.80;;;5.60;99.90;;;;;;6575322;21;20460;-87
2024/04/16 02:50:37;;;;;;;1.17;0.70;;;5.60;99.90;;;;;;6575679;21;20658;-88
2024/04/16 02:53:04;;;;;;;1.10;0.70;;;5.60;99.90;;;;;;6576109;21;20225;-87
2024/04/16 02:55:32;;;;;;;3.73;1.03;;;5.60;99.90;;;;;;6574746;21;20315;-88
2024/04/16 02:58:01;;;;;;;1.90;0.97;;;5.60;99.90;;;;;;6576095;21;20292;-87
2024/04/16 03:00:26;;;;;;;2.20;0.97;;;5.60;99.90;;;;;;6575563;21;20225;-88
2024/04/16 03:02:55;;;;;;;2.27;0.83;;;5.60;99.90;;;;;;6575912;21;20225;-87
2024/04/16 03:05:21;;;;;;;2.40;1.17;;;5.70;99.90;;;;;;6575886;21;20228;-88
2024/04/16 03:07:54;;;;;;;1.37;0.90;;;5.70;99.90;;;;;;6575967;21;20511;-87
2024/04/16 03:10:20;;;;;;;1.13;0.97;;;5.70;99.90;;;;;;6575473;21;20674;-88
2024/04/16 03:12:49;;;;;;;2.03;0.93;;;5.60;99.90;;;;;;6576881;21;20512;-87
2024/04/16 03:15:15;;;;;;;2.63;1.50;;;5.60;99.90;;;;;;6577222;21;20233;-88
2024/04/16 03:17:43;;;;;;;2.63;1.00;;;5.60;99.90;;;;;;6576809;21;20947;-87
2024/04/16 03:20:09;;;;;;;1.83;1.17;;;5.60;99.90;;;;;;6578003;21;20221;-87
2024/04/16 03:22:38;;;;;;;1.63;1.23;;;5.60;99.90;;;;;;6575829;21;20528;-88
2024/04/16 03:25:06;;;;;;;1.67;1.30;;;5.60;99.90;;;;;;6577349;21;20263;-87
2024/04/16 03:27:35;;;;;;;3.20;1.67;;;5.60;99.90;;;;;;6576579;21;20966;-89
2024/04/16 03:30:01;;;;;;;3.10;1.30;;;5.60;99.90;;;;;;6577418;21;20504;-88
2024/04/16 03:32:29;;;;;;;1.30;1.13;;;5.60;99.90;;;;;;6576990;21;20516;-89
2024/04/16 03:34:55;;;;;;;3.20;1.43;;;5.60;99.90;;;;;;6577495;21;20233;-87
2024/04/16 03:37:24;;;;;;;1.60;1.50;;;5.50;99.90;;;;;;6577151;21;20453;-88
2024/04/16 03:39:53;;;;;;;1.33;1.17;;;5.50;99.90;;;;;;6576681;21;20264;-88
2024/04/16 03:42:24;;;;;;;2.77;1.27;;;5.50;99.90;;;;;;6576811;21;20507;-88
2024/04/16 03:44:55;;;;;;;2.93;1.37;;;5.60;99.90;;;;;;6577129;21;20958;-87
2024/04/16 03:47:21;;;;;;;1.60;1.30;;;5.60;99.90;;;;;;6576805;21;20571;-88
2024/04/16 03:49:50;;;;;;;1.80;1.13;;;5.50;99.90;;;;;;6576937;21;20481;-89
2024/04/16 03:52:15;;;;;;;2.27;1.17;;;5.60;99.90;;;;;;6576557;21;20440;-88
2024/04/16 03:54:44;;;;;;;1.27;1.17;;;5.60;99.90;;;;;;6576144;21;20742;-88
2024/04/16 03:57:10;;;;;;;2.70;1.20;;;5.60;99.90;;;;;;6577704;21;20308;-87
2024/04/16 04:00:59;;;;;;;1.20;1.03;;;5.60;99.90;;;;;;6578641;21;20567;-88
2024/04/16 04:02:27;;;;;;;1.37;1.10;;;5.60;99.90;;;;;;6578384;21;20545;-88
2024/04/16 04:04:56;;;;;;;1.70;1.20;;;5.60;99.90;;;;;;6579150;21;20483;-88
2024/04/16 04:12:37;;;;;;;0.83;0.83;;;5.60;99.90;;;;;;6579339;21;20260;-86
2024/04/16 04:15:08;;;;;;;1.73;1.00;;;5.60;99.90;;;;;;6582249;21;20964;-85
2024/04/16 04:17:37;;;;;;;1.20;0.90;;;5.60;99.90;;;;;;6580468;21;20628;-85
2024/04/16 04:20:04;;;;;;;2.40;1.10;;;5.60;99.90;;;;;;6592117;21;20549;-85
2024/04/16 04:22:32;;;;;;;1.53;1.00;;;5.50;99.90;;;;;;6635622;21;20458;-86
2024/04/16 04:24:58;;;;;;;1.57;1.07;;;5.50;99.90;;;;;;6638195;21;20224;-86
2024/04/16 04:27:26;;;;;;;1.07;1.00;;;5.40;99.90;;;;;;6636806;21;20467;-85
2024/04/16 04:29:53;;;;;;;3.43;1.23;;;5.40;99.90;;;;;;6637908;21;20725;-85
2024/04/16 04:32:25;;;;;;;1.10;1.00;;;5.40;99.90;;;;;;6637694;21;20458;-85
2024/04/16 04:34:51;;;;;;;2.80;1.13;;;5.40;99.90;;;;;;6638320;21;20988;-86
2024/04/16 04:37:20;;;;;;;2.10;1.20;;;5.40;99.90;;;;;;6637612;21;20481;-85
2024/04/16 04:39:46;;;;;;;1.83;1.30;;;5.30;99.90;;;;;;6636357;21;20450;-86
2024/04/16 04:42:14;;;;;;;4.80;1.40;;;5.30;99.90;;;;;;6636606;21;20511;-84
2024/04/16 04:44:40;;;;;;;2.03;1.17;;;5.40;99.90;;;;;;6636491;21;20507;-85
2024/04/16 04:47:09;;;;;;;4.47;1.63;;;5.40;99.90;;;;;;6639261;21;20816;-85
2024/04/16 04:49:37;;;;;;;2.23;1.33;;;5.40;99.90;;;;;;6635527;21;20220;-85
2024/04/16 04:52:06;;;;;;;2.83;1.40;;;5.40;99.90;;;;;;6633440;21;20804;-85
2024/04/16 04:54:34;;;;;;;2.10;1.57;;;5.50;99.90;;;;;;6635897;21;20451;-85
2024/04/16 04:57:02;;;;;;;1.83;1.40;;;5.40;99.90;;;;;;6633983;21;20459;-85
2024/04/16 04:59:28;;;;;;;4.73;1.40;;;5.50;99.90;;;;;;6635076;21;20585;-84
2024/04/16 05:01:57;;;;;;;3.70;1.60;;;5.40;99.90;;;;;;6635126;21;20459;-85
2024/04/16 05:04:23;;;;;;;2.93;1.80;;;5.50;99.90;;;;;;6633766;21;20224;-85
2024/04/16 05:06:54;;;;;;;2.13;1.97;;;5.60;99.90;;;;;;6634025;21;20571;-85
2024/04/16 05:09:20;;;;;;;3.17;2.07;;;5.60;99.90;;;;;;6634529;21;20561;-85
2024/04/16 05:11:49;;;;;;;4.37;1.83;;;5.70;99.90;;;;;;6633428;21;20451;-85
2024/04/16 05:14:15;;;;;;;3.67;2.30;;;5.70;99.90;;;;;;6633699;21;20275;-86
2024/04/16 05:16:43;;;;;;;1.87;1.73;;;5.80;99.90;;;;;;6636033;21;20546;-85
2024/04/16 05:19:09;;;;;;;4.30;2.20;;;5.80;99.90;;;;;;6637943;21;20263;-86
2024/04/16 05:21:38;;;;;;;5.17;1.77;;;5.90;99.90;;;;;;6637675;21;20466;-87
2024/04/16 05:24:06;;;;;;;5.43;2.03;;;5.90;99.90;;;;;;6638851;21;20342;-86
2024/04/16 05:26:35;;;;;;;3.20;2.27;;;6.00;99.90;;;;;;6638636;21;20511;-88
2024/04/16 05:29:01;;;;;;;3.77;2.47;;;6.00;99.90;;;;;;6637758;21;20263;-87
2024/04/16 05:31:29;;;;;;;3.33;2.13;;;6.10;99.90;;;;;;6637362;21;20458;-87
2024/04/16 05:33:55;;;;;;;4.27;2.23;;;6.20;99.90;;;;;;6638450;21;20267;-87
2024/04/16 05:36:23;;;;;;;4.50;2.10;;;6.20;99.90;;;;;;6640030;21;20220;-86
2024/04/16 05:38:49;;;;;;;3.73;2.20;;;6.20;99.90;;;;;;6636973;21;20582;-87
2024/04/16 05:41:20;;;;;;;4.53;2.30;;;6.30;99.90;;;;;;6636467;21;20224;-86
2024/04/16 05:43:47;;;;;;;4.17;2.30;;;6.30;99.90;;;;;;6638413;21;20224;-86
2024/04/16 05:46:16;;;;;;;5.00;2.07;;;6.30;99.90;;;;;;6635393;21;20317;-87
2024/04/16 05:48:42;;;;;;;3.10;2.27;;;6.40;99.90;;;;;;6637055;21;20220;-85
2024/04/16 05:51:11;;;;;;;3.23;2.17;;;6.40;99.90;;;;;;6637668;21;20269;-86
2024/04/16 05:53:36;;;;;;;3.40;2.20;;;6.50;99.90;;;;;;6635784;21;20535;-86
2024/04/16 05:56:05;;;;;;;2.43;2.10;;;6.50;99.90;;;;;;6636413;21;20521;-87
2024/04/16 05:58:42;;;;;;;3.27;2.17;;;6.60;99.90;;;;;;6636691;21;20232;-87
2024/04/16 06:01:12;;;;;;;4.33;2.20;;;6.60;99.90;;;;;;6635564;21;20279;-87
2024/04/16 06:03:38;;;;;;;3.07;2.07;;;6.60;99.90;;;;;;6636730;21;20268;-87
2024/04/16 06:06:07;;;;;;;5.17;2.20;;;6.60;99.90;;;;;;6636480;21;20227;-87
2024/04/16 06:08:33;;;;;;;2.43;2.10;;;6.60;99.90;;;;;;6636121;21;20278;-86
2024/04/16 06:11:01;;;;;;;5.37;1.90;;;6.60;99.90;;;;;;6636374;21;20224;-86
2024/04/16 06:13:27;;;;;;;3.73;2.33;;;6.60;99.90;;;;;;6636519;21;20226;-86
2024/04/16 06:15:58;;;;;;;2.37;1.70;;;6.60;99.90;;;;;;6636494;21;20270;-86
2024/04/16 06:18:25;;;;;;;2.00;1.73;;;6.70;99.90;;;;;;6636410;21;20283;-86
2024/04/16 06:20:54;;;;;;;3.07;2.10;;;6.70;99.90;;;;;;6635808;21;20228;-85
2024/04/16 06:23:21;;;;;;;4.23;2.20;;;6.80;99.90;;;;;;6635550;21;20271;-86
2024/04/16 06:25:50;;;;;;;3.87;1.87;;;6.90;99.90;;;;;;6634693;21;20349;-86
2024/04/16 06:28:16;;;;;;;3.37;2.17;;;7.10;99.90;;;;;;6635985;21;20478;-87
2024/04/16 06:30:44;;;;;;;4.70;2.20;;;7.10;99.90;;;;;;6636878;21;20216;-87
2024/04/16 06:33:15;;;;;;;3.47;1.97;;;7.20;99.90;;;;;;6636139;21;20711;-86
2024/04/16 06:35:43;;;;;;;5.40;2.57;;;7.30;99.90;;;;;;6634533;21;20239;-87
2024/04/16 06:38:09;;;;;;;3.07;1.90;;;7.40;99.90;;;;;;6633745;21;20259;-87
2024/04/16 06:40:38;;;;;;;6.97;2.57;;;7.50;99.90;;;;;;6634996;21;20534;-86
2024/04/16 06:43:04;;;;;;;8.17;2.43;;;7.50;99.90;;;;;;6634549;21;20250;-85
2024/04/16 06:45:32;;;;;;;5.97;2.50;;;7.50;99.90;;;;;;6635175;21;20271;-86
2024/04/16 06:47:58;;;;;;;5.27;2.30;;;7.60;99.90;;;;;;6634679;21;20231;-86
2024/04/16 06:50:29;;;;;;;3.57;2.20;;;7.60;99.90;;;;;;6636925;21;20262;-86
2024/04/16 06:52:55;;;;;;;2.67;1.87;;;7.60;99.90;;;;;;6634981;21;20216;-86
2024/04/16 06:55:24;;;;;;;2.77;1.83;;;7.50;99.90;;;;;;6637167;21;20670;-86
2024/04/16 06:57:50;;;;;;;4.10;2.13;;;7.50;99.90;;;;;;6637128;21;20233;-87
2024/04/16 07:00:18;;;;;;;3.20;2.03;;;7.40;99.90;;;;;;6634768;21;20723;-87
2024/04/16 07:02:44;;;;;;;3.87;2.37;;;7.40;99.90;;;;;;6635669;21;20341;-86
2024/04/16 07:05:13;;;;;;;3.23;2.03;;;7.30;99.90;;;;;;6635909;21;20699;-86
2024/04/16 07:07:41;;;;;;;2.93;2.03;;;7.40;99.90;;;;;;6634893;21;20236;-86
2024/04/16 07:10:10;;;;;;;2.53;1.90;;;7.30;99.90;;;;;;6635205;21;20334;-86
2024/04/16 07:12:36;;;;;;;3.33;2.00;;;7.40;99.90;;;;;;6635725;21;20255;-87
2024/04/16 07:15:07;;;;;;;2.87;2.00;;;7.50;99.90;;;;;;6636104;21;20236;-86
2024/04/16 07:17:32;;;;;;;4.03;1.90;;;7.50;99.90;;;;;;6635936;21;20594;-86
2024/04/16 07:20:01;;;;;;;3.37;2.07;;;7.40;99.90;;;;;;6636345;21;20235;-87
2024/04/16 07:22:27;;;;;;;3.53;1.60;;;7.40;99.90;;;;;;6635363;21;20212;-87
2024/04/16 07:24:58;;;;;;;4.57;2.27;;;7.40;99.90;;;;;;6637830;21;20220;-86
2024/04/16 07:27:24;;;;;;;3.00;1.83;;;7.50;99.90;;;;;;6636663;21;20549;-86
2024/04/16 07:29:52;;;;;;;3.53;1.30;;;7.40;99.90;;;;;;6636899;21;20224;-87
2024/04/16 07:32:18;;;;;;;4.53;1.67;;;7.50;99.90;;;;;;6636491;21;20220;-87
2024/04/16 07:34:47;;;;;;;2.07;1.33;;;7.50;99.90;;;;;;6637376;21;20224;-87
2024/04/16 07:37:13;;;;;;;1.97;1.70;;;7.50;99.90;;;;;;6635883;21;20283;-86
2024/04/16 07:39:41;;;;;;;1.57;1.47;;;7.60;99.90;;;;;;6637311;21;20228;-87
2024/04/16 07:42:10;;;;;;;2.90;1.50;;;7.60;99.90;;;;;;6637034;21;20220;-87
2024/04/16 07:44:38;;;;;;;5.70;1.60;;;7.60;99.90;;;;;;6636569;21;20228;-86
2024/04/16 07:47:05;;;;;;;1.17;1.10;;;7.60;99.90;;;;;;6636925;21;20546;-86
2024/04/16 07:49:34;;;;;;;3.33;1.50;;;7.60;99.90;;;;;;6635505;21;20333;-86
2024/04/16 07:52:00;;;;;;;3.63;1.23;;;7.60;99.90;;;;;;6637006;21;20220;-86
2024/04/16 07:54:28;;;;;;;2.23;1.63;;;7.60;99.90;;;;;;6635730;21;20220;-87
2024/04/16 07:56:54;;;;;;;1.40;1.30;;;7.70;99.90;;;;;;6634238;21;20236;-87
2024/04/16 07:59:26;;;;;;;2.17;1.30;;;7.80;99.90;;;;;;6635048;21;20224;-86
2024/04/16 08:01:52;;;;;;;1.90;1.30;;;7.80;99.90;;;;;;6635539;21;20220;-87
2024/04/16 08:04:20;;;;;;;1.70;1.20;;;7.90;99.90;;;;;;6635344;21;20274;-86
2024/04/16 08:06:48;;;;;;;2.23;1.33;;;7.90;99.90;;;;;;6634983;21;20240;-89
2024/04/16 08:09:17;;;;;;;2.17;1.00;;;7.90;99.90;;;;;;6595133;21;20305;-90
2024/04/16 08:11:44;;;;;;;3.57;1.30;;;7.90;99.90;;;;;;6630375;21;20259;-90
2024/04/16 08:14:14;;;;;;;3.03;1.10;;;7.90;99.90;;;;;;6631933;21;20259;-89
2024/04/16 08:16:43;;;;;;;1.23;0.90;;;8.00;99.90;;;;;;6632102;21;20703;-90
2024/04/16 08:19:11;;;;;;;2.57;1.00;;;8.00;99.90;;;;;;6629600;21;20259;-88
2024/04/16 08:21:37;;;;;;;1.27;0.93;;;8.10;99.90;;;;;;6629881;21;20228;-89
2024/04/16 08:24:06;;;;;;;1.37;0.90;;;8.10;99.90;;;;;;6630197;21;20354;-87
2024/04/16 08:26:32;;;;;;;1.93;0.70;;;8.30;99.90;;;;;;6637120;21;20259;-87
2024/04/16 08:29:01;;;;;;;1.23;0.80;;;8.40;99.90;;;;;;6634307;21;20224;-88
2024/04/16 08:31:27;;;;;;;0.83;0.70;;;8.50;99.90;;;;;;6637057;21;20270;-87
2024/04/16 08:33:58;;;;;;;2.60;0.77;;;8.60;99.90;;;;;;6639104;21;20224;-87
2024/04/16 08:36:24;;;;;;;1.60;0.80;;;8.60;99.90;;;;;;6635139;21;20239;-87
2024/04/16 08:38:53;;;;;;;1.40;1.00;;;8.60;99.90;;;;;;6636464;21;20773;-87
2024/04/16 08:41:19;;;;;;;1.90;1.00;;;8.60;99.90;;;;;;6635295;21;20220;-87
2024/04/16 08:43:48;;;;;;;0.87;0.83;;;8.60;99.90;;;;;;6640114;21;20296;-87
2024/04/16 08:46:16;;;;;;;1.80;0.70;;;8.40;99.90;;;;;;6643537;21;20572;-87
2024/04/16 08:48:46;;;;;;;1.80;0.70;;;8.40;99.90;;;;;;6638689;21;20270;-87
2024/04/16 08:51:17;;;;;;;0.60;0.50;;;8.30;99.90;;;;;;6632794;21;20366;-87
2024/04/16 08:53:47;;;;;;;0.87;0.60;;;8.30;99.90;;;;;;6637333;21;20224;-88
2024/04/16 08:56:13;;;;;;;1.23;0.70;;;8.30;99.90;;;;;;6634826;21;20571;-87
2024/04/16 08:58:43;;;;;;;1.07;0.80;;;8.40;99.90;;;;;;6640288;21;20236;-87
2024/04/16 09:01:11;;;;;;;0.70;0.60;;;8.50;99.90;;;;;;6633668;21;20263;-88
2024/04/16 09:03:41;;;;;;;1.43;0.77;;;8.60;99.90;;;;;;6632717;21;20228;-88
2024/04/16 09:06:08;;;;;;;0.80;0.70;;;8.60;99.90;;;;;;6635511;21;20314;-88
2024/04/16 09:08:40;;;;;;;0.93;0.60;;;8.70;99.90;;;;;;6608336;21;20306;-87
2024/04/16 09:11:06;;;;;;;0.53;0.50;;;8.70;99.90;;;;;;6637521;21;20267;-87
2024/04/16 09:13:43;;;;;;;0.50;0.50;;;8.70;99.90;;;;;;6636435;21;20228;-87
2024/04/16 09:16:09;;;;;;;1.43;0.77;;;8.80;99.90;;;;;;6635096;21;20258;-87
2024/04/16 09:18:38;;;;;;;0.83;0.63;;;8.90;99.90;;;;;;6639534;21;20355;-87
2024/04/16 09:21:06;;;;;;;0.80;0.60;;;9.00;99.90;;;;;;6633856;21;20626;-89
2024/04/16 09:23:35;;;;;;;1.20;0.70;;;9.10;99.90;;;;;;6632167;21;20296;-88
2024/04/16 09:26:31;;;;;;;0.63;0.63;;;9.20;99.90;;;;;;6632559;21;20271;-89
2024/04/16 09:29:02;;;;;;;0.73;0.50;;;9.30;99.90;;;;;;6630547;21;20322;-88
2024/04/16 09:31:28;;;;;;;0.60;0.60;;;9.30;99.90;;;;;;6632270;21;20220;-88
2024/04/16 09:34:06;;;;;;;1.03;0.60;;;9.40;99.90;;;;;;6631938;21;20277;-88
2024/04/16 09:36:33;;;;;;;1.73;0.60;;;9.60;99.90;;;;;;6631081;21;20293;-88
2024/04/16 09:39:03;;;;;;;1.00;0.60;;;9.60;99.90;;;;;;6630450;21;20220;-88
2024/04/16 09:41:30;;;;;;;0.87;0.70;;;9.70;99.90;;;;;;6631849;21;20267;-88
2024/04/16 09:44:01;;;;;;;1.97;0.83;;;9.50;99.90;;;;;;6631088;21;20228;-88
2024/04/16 09:46:29;;;;;;;1.53;0.90;;;9.60;99.90;;;;;;6632161;21;20220;-88
2024/04/16 09:48:59;;;;;;;0.73;0.70;;;9.40;99.90;;;;;;6630734;21;20299;-87
2024/04/16 09:51:26;;;;;;;1.13;0.70;;;9.50;99.90;;;;;;6631184;21;20676;-88
2024/04/16 09:53:56;;;;;;;0.60;0.60;;;9.60;99.90;;;;;;6631254;21;20220;-88
2024/04/16 09:56:23;;;;;;;0.83;0.77;;;9.70;99.90;;;;;;6631587;21;20220;-88
2024/04/16 09:58:54;;;;;;;1.60;0.70;;;9.70;99.90;;;;;;6630413;21;20224;-88
2024/04/16 10:01:33;;;;;;;0.53;0.53;;;9.80;99.90;;;;;;6630262;21;20842;-88
2024/04/16 10:04:02;;;;;;;0.60;0.53;;;9.60;99.90;;;;;;6631335;21;20247;-88
2024/04/16 10:06:28;;;;;;;0.50;0.50;;;9.50;99.90;;;;;;6631234;21;20225;-88
2024/04/16 10:08:57;;;;;;;0.60;0.53;;;9.60;99.90;;;;;;6599605;21;20263;-88
2024/04/16 10:11:24;;;;;;;1.77;1.03;;;9.60;99.90;;;;;;6630057;21;20267;-88
2024/04/16 10:13:55;;;;;;;0.83;0.50;;;9.70;99.90;;;;;;6630599;21;20243;-88
2024/04/16 10:16:25;;;;;;;0.80;0.80;;;9.80;99.90;;;;;;6630725;21;20274;-88
2024/04/16 10:18:57;;;;;;;0.70;0.70;;;9.90;99.90;;;;;;6630256;21;20224;-88
2024/04/16 11:50:55;;;;;;;1.30;0.83;;;9.90;99.90;;;;;;6536828;22;20360;-84
2024/04/16 11:53:21;;;;;;;1.23;1.00;;;10.00;99.90;;;;;;6536895;22;20268;-83
2024/04/16 11:55:50;;;;;;;0.70;0.70;;;10.10;99.90;;;;;;6536092;22;20218;-83
2024/04/16 11:58:46;;;;;;;0.77;0.70;;;10.30;99.90;;;;;;6534560;22;20226;-84
2024/04/16 12:01:25;;;;;;;1.13;0.77;;;10.40;99.90;;;;;;6517729;22;20238;-84
2024/04/16 12:03:54;;;;;;;1.43;1.00;;;10.40;99.90;;;;;;6537168;22;20226;-83
2024/04/16 12:06:28;;;;;;;0.80;0.70;;;10.60;99.90;;;;;;6537621;22;20281;-84
2024/04/16 12:08:57;;;;;;;1.00;0.90;;;10.80;99.90;;;;;;6535566;22;20226;-83
2024/04/16 12:11:23;;;;;;;0.77;0.70;;;10.90;99.90;;;;;;6535606;22;20246;-84
2024/04/16 12:13:54;;;;;;;1.00;0.80;;;11.10;99.90;;;;;;6537191;22;20541;-83
2024/04/16 12:16:21;;;;;;;1.80;0.80;;;11.40;99.90;;;;;;6535068;22;20290;-84
2024/04/16 12:18:49;;;;;;;1.17;0.80;;;11.60;99.90;;;;;;6537059;22;20238;-84
2024/04/16 12:21:15;;;;;;;1.03;0.73;;;11.80;99.90;;;;;;6537779;22;20284;-83
2024/04/16 12:23:47;;;;;;;0.70;0.70;;;11.90;99.90;;;;;;6538940;22;20273;-83
2024/04/16 12:26:13;;;;;;;1.50;0.80;;;11.50;99.90;;;;;;6536777;22;20650;-83
2024/04/16 12:28:44;;;;;;;1.67;1.07;;;11.30;99.90;;;;;;6535877;22;20469;-84
2024/04/16 12:31:10;;;;;;;0.73;0.70;;;11.20;99.90;;;;;;6537249;22;20466;-84
2024/04/16 12:33:38;;;;;;;1.17;0.70;;;11.10;99.90;;;;;;6538674;21;20268;-84
2024/04/16 12:36:05;;;;;;;0.90;0.70;;;11.00;99.90;;;;;;6538145;22;20222;-84
2024/04/16 12:38:33;;;;;;;0.90;0.70;;;11.00;99.90;;;;;;6536347;22;20264;-84
2024/04/16 12:41:02;;;;;;;1.20;0.67;;;10.80;99.90;;;;;;6536773;22;20241;-84
2024/04/16 12:43:31;;;;;;;1.10;1.00;;;10.70;99.90;;;;;;6538041;22;20222;-84
2024/04/16 12:45:59;;;;;;;1.07;0.70;;;10.70;99.90;;;;;;6536888;22;20266;-84
2024/04/16 12:48:30;;;;;;;0.97;0.80;;;10.60;99.90;;;;;;6536799;22;20261;-84
2024/04/16 12:50:56;;;;;;;2.33;0.93;;;10.70;99.90;;;;;;6536620;22;20234;-84
2024/04/16 12:53:24;;;;;;;0.90;0.70;;;10.60;99.90;;;;;;6537876;22;20380;-84
2024/04/16 12:55:51;;;;;;;2.00;0.80;;;10.60;99.90;;;;;;6538391;22;20273;-84
2024/04/16 12:58:22;;;;;;;1.20;1.10;;;10.60;99.90;;;;;;6536252;22;20222;-84
2024/04/16 13:00:48;;;;;;;1.10;0.73;;;10.60;99.90;;;;;;6515482;22;20250;-84
2024/04/16 13:03:16;;;;;;;1.50;0.90;;;10.70;99.90;;;;;;6537412;22;20333;-84
2024/04/16 13:05:42;;;;;;;0.80;0.80;;;10.70;99.90;;;;;;6540488;22;20222;-84
2024/04/16 13:08:12;;;;;;;1.27;0.80;;;10.80;99.90;;;;;;6538532;22;20246;-84
2024/04/16 13:10:38;;;;;;;1.07;0.90;;;10.90;99.90;;;;;;6538706;22;20265;-84
2024/04/16 13:13:09;;;;;;;0.60;0.60;;;11.00;99.90;;;;;;6538231;22;20269;-85
2024/04/16 13:15:38;;;;;;;0.90;0.80;;;11.10;99.90;;;;;;6536741;22;20226;-84
2024/04/16 13:18:09;;;;;;;1.60;1.07;;;11.10;99.90;;;;;;6537131;22;20227;-84
2024/04/16 13:20:35;;;;;;;1.03;0.67;;;11.40;99.90;;;;;;6538192;22;20344;-84
2024/04/16 13:23:03;;;;;;;0.50;0.50;;;11.60;99.90;;;;;;6537518;22;20222;-84
2024/04/16 13:25:29;;;;;;;1.37;0.60;;;11.70;99.90;;;;;;6538162;22;20226;-84
2024/04/16 13:27:58;;;;;;;0.90;0.63;;;11.80;99.90;;;;;;6540144;22;20277;-84
2024/04/16 13:30:25;;;;;;;0.50;0.43;;;11.80;99.90;;;;;;6535699;22;20242;-84
2024/04/16 13:32:58;;;;;;;1.83;0.70;;;11.70;99.90;;;;;;6537695;21;20230;-84
2024/04/16 13:35:25;;;;;;;0.90;0.50;;;11.40;99.90;;;;;;6538394;22;20269;-84
2024/04/16 13:37:53;;;;;;;0.40;0.40;;;11.00;99.90;;;;;;6538194;22;20300;-83
2024/04/16 13:40:20;;;;;;;0.70;0.50;;;10.80;99.90;;;;;;6538168;22;20287;-83
2024/04/16 13:42:48;;;;;;;0.40;0.40;;;10.60;99.90;;;;;;6537835;22;20222;-84
2024/04/16 13:45:15;;;;;;;0.70;0.70;;;10.50;99.90;;;;;;6538631;22;20234;-83
2024/04/16 13:47:43;;;;;;;1.03;0.70;;;10.90;99.90;;;;;;6537861;22;20230;-83
2024/04/16 13:50:12;;;;;;;2.40;0.60;;;11.30;99.90;;;;;;6537401;22;20234;-83
2024/04/16 13:52:40;;;;;;;1.40;0.60;;;11.40;99.90;;;;;;6537233;22;20344;-84
2024/04/16 13:55:07;;;;;;;3.17;0.77;;;11.30;99.90;;;;;;6537329;22;20222;-84
2024/04/16 13:57:36;;;;;;;1.00;0.60;;;11.30;99.90;;;;;;6536784;22;20222;-84
2024/04/16 14:00:02;;;;;;;1.57;0.60;;;11.10;99.90;;;;;;6538041;22;20234;-84
2024/04/16 14:02:32;;;;;;;0.60;0.57;;;11.00;99.90;;;;;;6537280;22;20218;-84
2024/04/16 14:04:58;;;;;;;0.60;0.57;;;10.90;99.90;;;;;;6537398;22;20226;-83
2024/04/16 14:07:30;;;;;;;0.63;0.53;;;10.80;99.90;;;;;;6537514;22;20234;-83
2024/04/16 14:09:56;;;;;;;0.80;0.50;;;10.80;99.90;;;;;;6540996;21;20264;-84
2024/04/16 14:12:27;;;;;;;0.90;0.40;;;10.70;99.90;;;;;;6546073;21;20219;-83
2024/04/16 14:14:59;;;;;;;1.57;0.70;;;10.50;99.90;;;;;;6532952;22;20320;-84
2024/04/16 14:17:25;;;;;;;2.20;0.70;;;10.60;99.90;;;;;;6533026;22;20270;-83
2024/04/16 14:19:54;;;;;;;1.47;0.70;;;10.60;99.90;;;;;;6534311;22;20226;-83
2024/04/16 14:22:23;;;;;;;2.30;0.70;;;10.50;99.90;;;;;;6537743;22;20260;-83
2024/04/16 14:24:54;;;;;;;1.40;0.80;;;10.40;99.90;;;;;;6537780;22;20301;-83
2024/04/16 14:27:20;;;;;;;0.73;0.67;;;10.40;99.90;;;;;;6535806;22;20226;-83
2024/04/16 14:29:49;;;;;;;2.37;0.80;;;10.50;99.90;;;;;;6536062;22;20245;-83
2024/04/16 14:32:17;;;;;;;2.00;1.20;;;10.40;99.90;;;;;;6533612;21;20242;-83
2024/04/16 19:01:13;;;;;;;4.77;1.93;;;9.50;99.90;;;;;;6528789;22;20662;-84